Time;durP1;ratioP1;P1;durP2;ratioP2;P2;SDS_P1;SDS_P2;PMS_P1;PMS_P2;Temp;Humidity;BMP_temperature;BMP_pressure;BME280_temperature;BME280_humidity;BME280_pressure;Samples;Min_cycle;Max_cycle;Signal;HPM_P1;HPM_P2
2022/03/27 00:00:06;;;;;;;;;;;12.50;76.30;220.40;238766.00;;;;347279;28;5056;-87
2022/03/27 00:00:18;;;;;;;;;;;12.50;76.60;220.40;238766.00;;;;344605;28;4038;-88
2022/03/27 00:00:30;;;;;;;;;;;12.50;76.80;220.40;238766.00;;;;344648;28;5542;-88
2022/03/27 00:00:41;;;;;;;;;;;12.50;76.50;220.40;238766.00;;;;345275;28;4257;-88
2022/03/27 00:00:53;;;;;;;;;;;12.50;76.40;220.40;238766.00;;;;347119;28;5932;-88
2022/03/27 00:01:05;;;;;;;;;;;12.50;76.20;220.40;238766.00;;;;348804;28;4035;-88
2022/03/27 00:01:18;;;;;;;;;;;12.50;76.30;220.40;238766.00;;;;345826;28;7441;-88
2022/03/27 00:01:31;;;;;;;;;;;12.50;76.40;220.40;238766.00;;;;341972;28;4169;-87
2022/03/27 00:01:43;;;;;;;;;;;12.50;76.20;220.40;238766.00;;;;343252;28;5018;-87
2022/03/27 00:01:55;;;;;;;;;;;12.50;76.00;220.40;238766.00;;;;344694;28;4029;-87
2022/03/27 00:02:07;;;;;;;;;;;12.50;76.10;220.40;238766.00;;;;344608;28;5256;-88
2022/03/27 00:02:19;;;;;;;;;;;12.50;76.40;220.40;238766.00;;;;347243;28;4020;-88
2022/03/27 00:02:31;;;;;;;;;;;12.50;76.20;220.40;238766.00;;;;345859;28;5517;-88
2022/03/27 00:02:43;;;;;;;;;;;12.50;76.70;220.40;238766.00;;;;343330;28;4080;-87
2022/03/27 00:02:55;;;;;;;;;;;12.50;76.50;220.40;238766.00;;;;344655;28;7868;-88
2022/03/27 00:03:07;;;;;;;;;;;12.50;76.20;220.40;238766.00;;;;344617;28;4269;-88
2022/03/27 00:03:19;;;;;;;;;;;12.50;77.10;220.40;238766.00;;;;344657;28;5272;-88
2022/03/27 00:03:31;;;;;;;;;;;12.40;77.00;220.40;238766.00;;;;347327;28;4227;-88
2022/03/27 00:03:43;;;;;;;;;;;12.40;76.80;220.40;238766.00;;;;348453;28;5014;-88
2022/03/27 00:03:54;;;;;;;;;;;12.40;77.00;220.40;238766.00;;;;343275;28;4254;-87
2022/03/27 00:04:07;;;;;;;;;;;12.40;77.10;220.40;238766.00;;;;344715;28;5307;-88
2022/03/27 00:04:18;;;;;;;;;;;12.40;77.30;220.40;238766.00;;;;347416;28;6039;-88
2022/03/27 00:04:30;;;;;;;;;;;12.40;77.00;220.40;238766.00;;;;345857;28;6621;-88
2022/03/27 00:04:42;;;;;;;;;;;12.40;77.10;220.40;238766.00;;;;344537;28;6169;-88
2022/03/27 00:04:54;;;;;;;;;;;12.40;77.00;220.40;238766.00;;;;343223;28;5052;-89
2022/03/27 00:05:07;;;;;;;;;;;12.40;77.00;220.40;238766.00;;;;346114;28;4274;-88
2022/03/27 00:05:18;;;;;;;;;;;12.40;77.10;220.40;238766.00;;;;345535;28;5564;-88
2022/03/27 00:05:30;;;;;;;;;;;12.40;77.00;220.40;238766.00;;;;344622;28;4480;-88
2022/03/27 00:05:42;;;;;;;;;;;12.40;76.90;220.40;238766.00;;;;347351;28;5044;-89
2022/03/27 00:05:53;;;;;;;;;;;12.40;77.10;220.40;238766.00;;;;343292;28;4115;-87
2022/03/27 00:06:05;;;;;;;;;;;12.30;77.80;220.40;238766.00;;;;345935;28;5034;-89
2022/03/27 00:06:17;;;;;;;;;;;12.30;77.30;220.40;238766.00;;;;347385;28;4233;-88
2022/03/27 00:06:29;;;;;;;;;;;12.30;77.00;220.40;238766.00;;;;344672;28;7200;-88
2022/03/27 00:06:41;;;;;;;;;;;12.30;76.90;220.40;238766.00;;;;345771;28;4304;-88
2022/03/27 00:06:52;;;;;;;;;;;12.30;77.10;220.40;238766.00;;;;342929;28;7183;-88
2022/03/27 00:07:04;;;;;;;;;;;12.30;77.20;220.40;238766.00;;;;343391;28;4239;-88
2022/03/27 00:07:16;;;;;;;;;;;12.30;77.20;220.40;238766.00;;;;344676;28;5030;-88
2022/03/27 00:07:28;;;;;;;;;;;12.30;77.00;220.40;238766.00;;;;344732;28;4256;-88
2022/03/27 00:07:39;;;;;;;;;;;12.30;77.50;220.40;238766.00;;;;344647;28;5049;-88
2022/03/27 00:07:51;;;;;;;;;;;12.30;77.50;220.40;238766.00;;;;347383;28;4031;-88
2022/03/27 00:08:03;;;;;;;;;;;12.30;77.50;220.40;238766.00;;;;345803;28;5043;-88
2022/03/27 00:08:15;;;;;;;;;;;12.30;77.70;220.40;238766.00;;;;346011;28;4240;-88
2022/03/27 00:08:27;;;;;;;;;;;12.30;77.80;220.40;238766.00;;;;345683;28;5033;-88
2022/03/27 00:08:39;;;;;;;;;;;12.30;77.80;220.40;238766.00;;;;343378;28;4328;-87
2022/03/27 00:08:51;;;;;;;;;;;12.20;77.70;220.40;238766.00;;;;344371;28;7899;-88
2022/03/27 00:09:03;;;;;;;;;;;12.20;77.90;220.40;238766.00;;;;346893;28;4050;-88
2022/03/27 00:09:15;;;;;;;;;;;12.20;77.70;220.40;238766.00;;;;343321;28;5345;-88
2022/03/27 00:09:27;;;;;;;;;;;12.20;77.70;220.40;238766.00;;;;344548;28;4052;-88
2022/03/27 00:09:38;;;;;;;;;;;12.20;77.80;220.40;238766.00;;;;345871;28;5056;-88
2022/03/27 00:09:50;;;;;;;;;;;12.20;78.10;220.40;238766.00;;;;344744;28;4160;-89
2022/03/27 00:10:03;;;;;;;;;;;12.10;77.90;220.40;238766.00;;;;343271;28;7173;-89
2022/03/27 00:10:15;;;;;;;;;;;12.10;77.90;220.40;238766.00;;;;344726;28;4239;-86
2022/03/27 00:10:26;;;;;;;;;;;12.20;78.10;220.40;238766.00;;;;344634;28;5624;-88
2022/03/27 00:11:38;;;;;;;;;;;12.10;77.40;220.40;238766.00;;;;344579;28;4027;-88
2022/03/27 00:11:50;;;;;;;;;;;12.00;77.60;220.40;238766.00;;;;344674;28;7804;-88
2022/03/27 00:12:03;;;;;;;;;;;12.10;77.70;220.40;238766.00;;;;343172;28;4526;-88
2022/03/27 00:12:15;;;;;;;;;;;12.00;77.90;220.40;238766.00;;;;344712;28;5277;-88
2022/03/27 00:12:27;;;;;;;;;;;12.10;77.90;220.40;238766.00;;;;344647;28;4033;-88
2022/03/27 00:12:39;;;;;;;;;;;12.00;77.70;220.40;238766.00;;;;343301;28;5076;-89
2022/03/27 00:12:50;;;;;;;;;;;12.00;77.70;220.40;238766.00;;;;345466;28;4423;-88
2022/03/27 00:13:02;;;;;;;;;;;12.00;77.30;220.40;238766.00;;;;343311;28;7323;-88
2022/03/27 00:13:14;;;;;;;;;;;12.00;77.00;220.40;238766.00;;;;344792;28;5497;-88
2022/03/27 00:13:26;;;;;;;;;;;12.00;77.20;220.40;238766.00;;;;344563;28;5053;-88
2022/03/27 00:13:37;;;;;;;;;;;12.00;77.10;220.40;238766.00;;;;344577;28;6105;-88
2022/03/27 00:13:52;;;;;;;;;;;12.00;77.50;220.40;238766.00;;;;344501;28;5057;-88
2022/03/27 00:14:05;;;;;;;;;;;12.00;77.60;220.40;238766.00;;;;344577;28;4220;-88
2022/03/27 00:14:17;;;;;;;;;;;12.00;77.40;220.40;238766.00;;;;344600;28;5130;-88
2022/03/27 00:14:28;;;;;;;;;;;12.00;77.20;220.40;238766.00;;;;346089;28;4092;-88
2022/03/27 00:14:40;;;;;;;;;;;12.00;77.00;220.40;238766.00;;;;345880;28;5243;-88
2022/03/27 00:14:52;;;;;;;;;;;12.00;77.40;220.40;238766.00;;;;344433;28;4056;-88
2022/03/27 00:15:04;;;;;;;;;;;12.00;77.70;220.40;238766.00;;;;344621;28;5108;-88
2022/03/27 00:15:17;;;;;;;;;;;12.00;77.80;220.40;238766.00;;;;345950;28;4340;-88
2022/03/27 00:15:29;;;;;;;;;;;12.00;77.90;220.40;238766.00;;;;344570;28;5258;-88
2022/03/27 00:15:40;;;;;;;;;;;12.00;78.20;220.40;238766.00;;;;345980;28;4027;-88
2022/03/27 00:15:52;;;;;;;;;;;12.00;78.40;220.40;238766.00;;;;344628;28;5250;-88
2022/03/27 00:16:04;;;;;;;;;;;12.00;78.50;220.40;238766.00;;;;343395;28;4406;-88
2022/03/27 00:16:16;;;;;;;;;;;12.00;78.70;220.40;238766.00;;;;346027;28;5541;-88
2022/03/27 00:16:28;;;;;;;;;;;12.00;78.60;220.40;238766.00;;;;346058;28;4249;-88
2022/03/27 00:16:40;;;;;;;;;;;12.00;78.60;220.40;238766.00;;;;345936;28;5028;-88
2022/03/27 00:16:52;;;;;;;;;;;12.00;78.70;220.40;238766.00;;;;345920;28;6119;-88
2022/03/27 00:17:04;;;;;;;;;;;12.00;78.40;220.40;238766.00;;;;345960;28;5073;-88
2022/03/27 00:17:18;;;;;;;;;;;11.90;78.50;220.40;238766.00;;;;344611;28;4630;-88
2022/03/27 00:17:32;;;;;;;;;;;11.90;78.30;220.40;238766.00;;;;347169;28;7733;-88
2022/03/27 00:17:44;;;;;;;;;;;11.90;77.90;220.40;238766.00;;;;346093;28;4323;-87
2022/03/27 00:17:55;;;;;;;;;;;11.90;77.80;220.40;238766.00;;;;343264;28;7072;-87
2022/03/27 00:18:07;;;;;;;;;;;11.90;77.40;220.40;238766.00;;;;343281;28;5728;-88
2022/03/27 00:18:19;;;;;;;;;;;11.90;77.20;220.40;238766.00;;;;345620;28;5048;-88
2022/03/27 00:18:31;;;;;;;;;;;11.90;77.00;220.40;238766.00;;;;344624;28;4710;-89
2022/03/27 00:18:42;;;;;;;;;;;11.90;76.90;220.40;238766.00;;;;345743;28;5027;-88
2022/03/27 00:18:55;;;;;;;;;;;11.90;77.10;220.40;238766.00;;;;346699;28;4043;-88
2022/03/27 00:19:07;;;;;;;;;;;11.90;77.30;220.40;238766.00;;;;344942;28;5522;-88
2022/03/27 00:19:18;;;;;;;;;;;11.90;77.50;220.40;238766.00;;;;344655;28;4500;-88
2022/03/27 00:19:30;;;;;;;;;;;11.90;77.40;220.40;238766.00;;;;345897;28;8052;-88
2022/03/27 00:19:42;;;;;;;;;;;11.90;77.60;220.40;238766.00;;;;344522;28;4051;-87
2022/03/27 00:19:54;;;;;;;;;;;11.90;77.30;220.40;238766.00;;;;345060;28;5242;-87
2022/03/27 00:20:12;;;;;;;;;;;11.90;77.30;220.40;238766.00;;;;344427;28;4096;-87
2022/03/27 00:20:24;;;;;;;;;;;11.90;77.20;220.40;238766.00;;;;344591;28;5050;-88
2022/03/27 00:20:35;;;;;;;;;;;11.90;77.20;220.40;238766.00;;;;345941;28;4049;-86
2022/03/27 00:20:47;;;;;;;;;;;11.90;77.50;220.40;238766.00;;;;345516;28;7203;-87
2022/03/27 00:20:59;;;;;;;;;;;11.90;77.70;220.40;238766.00;;;;346098;28;4060;-88
2022/03/27 00:21:11;;;;;;;;;;;11.90;77.40;220.40;238766.00;;;;347712;28;5243;-87
2022/03/27 00:21:22;;;;;;;;;;;12.00;77.40;220.40;238766.00;;;;347073;28;4354;-89
2022/03/27 00:21:34;;;;;;;;;;;11.90;77.10;220.40;238766.00;;;;341842;28;5116;-88
2022/03/27 00:21:46;;;;;;;;;;;11.90;77.70;220.40;238766.00;;;;344264;28;4059;-88
2022/03/27 00:21:58;;;;;;;;;;;11.90;77.40;220.40;238766.00;;;;345160;28;5556;-87
2022/03/27 00:22:10;;;;;;;;;;;12.00;77.60;220.40;238766.00;;;;345961;28;4041;-88
2022/03/27 00:22:22;;;;;;;;;;;11.90;77.70;220.40;238766.00;;;;343064;28;7101;-87
2022/03/27 00:22:38;;;;;;;;;;;11.90;77.50;220.40;238766.00;;;;344655;28;4245;-88
2022/03/27 00:22:50;;;;;;;;;;;11.90;77.60;220.40;238766.00;;;;345762;28;5279;-88
2022/03/27 00:23:02;;;;;;;;;;;11.90;77.70;220.40;238766.00;;;;345979;28;4228;-87
2022/03/27 00:23:14;;;;;;;;;;;12.00;77.90;220.40;238766.00;;;;345947;28;5103;-88
2022/03/27 00:23:26;;;;;;;;;;;11.90;78.10;220.40;238766.00;;;;344418;28;4020;-87
2022/03/27 00:23:37;;;;;;;;;;;11.90;78.00;220.40;238766.00;;;;345994;28;5595;-88
2022/03/27 00:23:50;;;;;;;;;;;12.00;77.70;220.40;238766.00;;;;344620;28;4257;-88
2022/03/27 00:24:02;;;;;;;;;;;11.90;77.70;220.40;238766.00;;;;345635;28;5052;-88
2022/03/27 00:24:13;;;;;;;;;;;11.90;78.00;220.40;238766.00;;;;345920;28;4045;-88
2022/03/27 00:24:25;;;;;;;;;;;11.90;77.80;220.40;238766.00;;;;346671;28;8307;-88
2022/03/27 00:24:37;;;;;;;;;;;12.00;78.00;220.40;238766.00;;;;344501;28;4488;-88
2022/03/27 00:24:49;;;;;;;;;;;11.90;77.80;220.40;238766.00;;;;341794;28;7164;-88
2022/03/27 00:25:01;;;;;;;;;;;11.90;77.50;220.40;238766.00;;;;346063;28;4573;-88
2022/03/27 00:25:12;;;;;;;;;;;12.00;77.50;220.40;238766.00;;;;347193;28;5031;-87
2022/03/27 00:25:24;;;;;;;;;;;12.00;77.50;220.40;238766.00;;;;344397;28;4257;-88
2022/03/27 00:25:36;;;;;;;;;;;12.00;77.90;220.40;238766.00;;;;347361;28;5038;-89
2022/03/27 00:25:50;;;;;;;;;;;11.90;78.00;220.40;238766.00;;;;348140;28;4265;-87
2022/03/27 00:26:02;;;;;;;;;;;11.90;78.20;220.40;238766.00;;;;345701;28;8005;-86
2022/03/27 00:26:15;;;;;;;;;;;12.00;78.60;220.40;238766.00;;;;346029;28;4068;-88
2022/03/27 00:26:27;;;;;;;;;;;11.90;78.80;220.40;238766.00;;;;345967;28;5018;-88
2022/03/27 00:26:39;;;;;;;;;;;11.90;79.10;220.40;238766.00;;;;347347;28;4319;-87
2022/03/27 00:26:52;;;;;;;;;;;11.90;79.00;220.40;238766.00;;;;344384;28;5296;-88
2022/03/27 00:27:04;;;;;;;;;;;11.90;78.80;220.40;238766.00;;;;346165;28;4562;-88
2022/03/27 00:27:15;;;;;;;;;;;11.90;79.00;220.40;238766.00;;;;345958;28;5117;-88
2022/03/27 00:27:28;;;;;;;;;;;11.90;79.00;220.40;238766.00;;;;343237;28;6089;-88
2022/03/27 00:27:40;;;;;;;;;;;11.90;78.80;220.40;238766.00;;;;345577;28;7132;-88
2022/03/27 00:27:51;;;;;;;;;;;11.90;78.90;220.40;238766.00;;;;347107;28;5975;-88
2022/03/27 00:28:03;;;;;;;;;;;11.90;79.00;220.40;238766.00;;;;346021;28;7011;-88
2022/03/27 00:28:15;;;;;;;;;;;11.90;79.20;220.40;238766.00;;;;347420;28;4456;-88
2022/03/27 00:28:31;;;;;;;;;;;11.80;79.40;220.40;238766.00;;;;344638;28;5048;-88
2022/03/27 00:28:43;;;;;;;;;;;11.90;79.30;220.40;238766.00;;;;347109;28;4062;-88
2022/03/27 00:28:55;;;;;;;;;;;11.80;79.10;220.40;238766.00;;;;344490;28;7357;-88
2022/03/27 00:29:07;;;;;;;;;;;11.90;78.80;220.40;238766.00;;;;344739;28;4255;-88
2022/03/27 00:29:21;;;;;;;;;;;11.80;78.70;220.40;238766.00;;;;345702;28;5044;-88
2022/03/27 00:29:33;;;;;;;;;;;11.90;78.80;220.40;238766.00;;;;344496;28;4052;-87
2022/03/27 00:29:45;;;;;;;;;;;11.80;78.80;220.40;238766.00;;;;345969;28;7417;-88
2022/03/27 00:29:57;;;;;;;;;;;11.80;78.80;220.40;238766.00;;;;344661;28;4220;-88
2022/03/27 00:30:09;;;;;;;;;;;11.80;78.60;220.40;238766.00;;;;345662;28;5042;-87
2022/03/27 00:30:21;;;;;;;;;;;11.80;78.90;220.40;238766.00;;;;343124;28;6093;-88
2022/03/27 00:30:33;;;;;;;;;;;11.80;79.20;220.40;238766.00;;;;342984;28;7257;-87
2022/03/27 00:30:45;;;;;;;;;;;11.80;79.30;220.40;238766.00;;;;344505;28;4041;-88
2022/03/27 00:30:56;;;;;;;;;;;11.80;79.20;220.40;238766.00;;;;343238;28;7058;-88
2022/03/27 00:31:09;;;;;;;;;;;11.80;79.20;220.40;238766.00;;;;344607;28;4253;-89
2022/03/27 00:31:20;;;;;;;;;;;11.70;79.30;220.40;238766.00;;;;344665;28;7516;-88
2022/03/27 00:31:36;;;;;;;;;;;11.70;79.30;220.40;238766.00;;;;345902;28;4227;-88
2022/03/27 00:31:48;;;;;;;;;;;11.80;79.50;220.40;238766.00;;;;341884;28;7783;-88
2022/03/27 00:32:00;;;;;;;;;;;11.70;79.30;220.40;238766.00;;;;342002;28;4028;-88
2022/03/27 00:32:12;;;;;;;;;;;11.70;79.50;220.40;238766.00;;;;345775;28;5371;-88
2022/03/27 00:32:24;;;;;;;;;;;11.70;79.90;220.40;238766.00;;;;345991;28;4275;-88
2022/03/27 00:32:36;;;;;;;;;;;11.70;80.00;220.40;238766.00;;;;343154;28;7179;-88
2022/03/27 00:32:48;;;;;;;;;;;11.70;79.30;220.40;238766.00;;;;345844;28;4278;-88
2022/03/27 00:33:00;;;;;;;;;;;11.70;79.20;220.40;238766.00;;;;344435;28;5031;-88
2022/03/27 00:33:12;;;;;;;;;;;11.70;78.90;220.40;238766.00;;;;344600;28;4046;-88
2022/03/27 00:33:23;;;;;;;;;;;11.70;78.50;220.40;238766.00;;;;344707;28;5340;-88
2022/03/27 00:33:35;;;;;;;;;;;11.70;78.60;220.40;238766.00;;;;344663;28;4034;-87
2022/03/27 00:33:47;;;;;;;;;;;11.70;78.70;220.40;238766.00;;;;345867;28;5238;-87
2022/03/27 00:33:59;;;;;;;;;;;11.70;78.50;220.40;238766.00;;;;346060;28;4023;-88
2022/03/27 00:34:11;;;;;;;;;;;11.70;78.60;220.40;238766.00;;;;343136;28;5064;-88
2022/03/27 00:34:23;;;;;;;;;;;11.70;78.70;220.40;238766.00;;;;344660;28;4459;-88
2022/03/27 00:34:34;;;;;;;;;;;11.70;79.00;220.40;238766.00;;;;343136;28;7058;-88
2022/03/27 00:34:46;;;;;;;;;;;11.70;78.90;220.40;238766.00;;;;343333;28;4595;-89
2022/03/27 00:34:58;;;;;;;;;;;11.70;78.60;220.40;238766.00;;;;344417;28;5104;-88
2022/03/27 00:35:10;;;;;;;;;;;11.70;78.60;220.40;238766.00;;;;346019;28;4012;-89
2022/03/27 00:35:22;;;;;;;;;;;11.80;78.70;220.40;238766.00;;;;345846;28;5035;-88
2022/03/27 00:35:34;;;;;;;;;;;11.70;79.30;220.40;238766.00;;;;348540;28;6120;-87
2022/03/27 00:35:46;;;;;;;;;;;11.70;79.50;220.40;238766.00;;;;345881;28;5512;-88
2022/03/27 00:35:58;;;;;;;;;;;11.70;79.60;220.40;238766.00;;;;347138;28;4033;-88
2022/03/27 00:36:13;;;;;;;;;;;11.70;79.20;220.40;238766.00;;;;345896;28;7402;-88
2022/03/27 00:36:25;;;;;;;;;;;11.70;78.90;220.40;238766.00;;;;343260;28;4240;-87
2022/03/27 00:36:36;;;;;;;;;;;11.70;78.90;220.40;238766.00;;;;343090;28;5554;-88
2022/03/27 00:36:49;;;;;;;;;;;11.70;79.40;220.40;238766.00;;;;344618;28;4237;-88
2022/03/27 00:37:00;;;;;;;;;;;11.70;79.70;220.40;238766.00;;;;344444;28;5048;-89
2022/03/27 00:37:12;;;;;;;;;;;11.70;79.90;220.40;238766.00;;;;346144;28;4358;-88
2022/03/27 00:37:24;;;;;;;;;;;11.70;79.50;220.40;238766.00;;;;345713;28;5295;-88
2022/03/27 00:37:36;;;;;;;;;;;11.70;79.70;220.40;238766.00;;;;344557;28;4098;-88
2022/03/27 00:37:48;;;;;;;;;;;11.70;79.60;220.40;238766.00;;;;344604;28;5049;-88
2022/03/27 00:37:59;;;;;;;;;;;11.70;79.60;220.40;238766.00;;;;343331;28;4503;-89
2022/03/27 00:38:11;;;;;;;;;;;11.70;79.60;220.40;238766.00;;;;348665;28;7119;-88
2022/03/27 00:38:23;;;;;;;;;;;11.70;79.50;220.40;238766.00;;;;347210;28;4032;-88
2022/03/27 00:38:35;;;;;;;;;;;11.70;79.20;220.40;238766.00;;;;343591;28;7002;-88
2022/03/27 00:38:46;;;;;;;;;;;11.70;79.50;220.40;238766.00;;;;346062;28;4026;-88
2022/03/27 00:38:58;;;;;;;;;;;11.70;79.80;220.40;238766.00;;;;343192;28;5057;-88
2022/03/27 00:39:10;;;;;;;;;;;11.70;79.50;220.40;238766.00;;;;345961;28;4215;-88
2022/03/27 00:39:22;;;;;;;;;;;11.70;79.00;220.40;238766.00;;;;347179;28;5030;-88
2022/03/27 00:39:34;;;;;;;;;;;11.70;79.10;220.40;238766.00;;;;344459;28;4324;-88
2022/03/27 00:39:46;;;;;;;;;;;11.70;79.10;220.40;238766.00;;;;341412;28;5241;-87
2022/03/27 00:39:57;;;;;;;;;;;11.70;79.10;220.40;238766.00;;;;343292;28;4052;-88
2022/03/27 00:40:09;;;;;;;;;;;11.70;79.00;220.40;238766.00;;;;347415;28;7456;-87
2022/03/27 00:40:21;;;;;;;;;;;11.70;79.10;220.40;238766.00;;;;347488;28;4335;-88
2022/03/27 00:40:34;;;;;;;;;;;11.70;79.60;220.40;238766.00;;;;346376;28;5384;-88
2022/03/27 00:40:45;;;;;;;;;;;11.70;80.00;220.40;238766.00;;;;345951;28;4007;-88
2022/03/27 00:40:57;;;;;;;;;;;11.70;80.30;220.40;238766.00;;;;343237;28;5509;-88
2022/03/27 00:41:09;;;;;;;;;;;11.70;80.20;220.40;238766.00;;;;344634;28;4207;-88
2022/03/27 00:41:24;;;;;;;;;;;11.70;80.00;220.40;238766.00;;;;346579;28;5016;-88
2022/03/27 00:41:36;;;;;;;;;;;11.60;79.80;220.40;238766.00;;;;344574;28;4284;-88
2022/03/27 00:41:49;;;;;;;;;;;11.70;79.60;220.40;238766.00;;;;345901;28;7162;-88
2022/03/27 00:42:01;;;;;;;;;;;11.70;79.50;220.40;238766.00;;;;345940;28;4057;-88
2022/03/27 00:42:13;;;;;;;;;;;11.70;79.40;220.40;238766.00;;;;344481;28;5126;-88
2022/03/27 00:42:25;;;;;;;;;;;11.70;79.50;220.40;238766.00;;;;344722;28;4017;-88
2022/03/27 00:42:37;;;;;;;;;;;11.70;79.40;220.40;238766.00;;;;342994;28;5010;-86
2022/03/27 00:42:48;;;;;;;;;;;11.70;79.50;220.40;238766.00;;;;345998;28;4047;-87
2022/03/27 00:43:00;;;;;;;;;;;11.70;79.30;220.40;238766.00;;;;344311;28;7057;-87
2022/03/27 00:43:12;;;;;;;;;;;11.70;79.20;220.40;238766.00;;;;344522;28;4066;-88
2022/03/27 00:43:24;;;;;;;;;;;11.70;79.10;220.40;238766.00;;;;344644;28;5098;-88
2022/03/27 00:43:36;;;;;;;;;;;11.70;79.00;220.40;238766.00;;;;343174;28;5957;-86
2022/03/27 00:43:48;;;;;;;;;;;11.70;79.00;220.40;238766.00;;;;344509;28;6337;-88
2022/03/27 00:43:59;;;;;;;;;;;11.70;79.10;220.40;238766.00;;;;344705;28;4211;-88
2022/03/27 00:44:11;;;;;;;;;;;11.70;79.40;220.40;238766.00;;;;345893;28;5039;-88
2022/03/27 00:44:23;;;;;;;;;;;11.60;79.70;220.40;238766.00;;;;347372;28;4022;-88
2022/03/27 00:44:36;;;;;;;;;;;11.60;80.00;220.40;238766.00;;;;344571;28;5061;-87
2022/03/27 00:44:48;;;;;;;;;;;11.60;80.20;220.40;238766.00;;;;344493;28;4025;-88
2022/03/27 00:44:59;;;;;;;;;;;11.60;80.20;220.40;238766.00;;;;345979;28;5575;-88
2022/03/27 00:45:11;;;;;;;;;;;11.60;80.10;220.40;238766.00;;;;347243;28;4244;-88
2022/03/27 00:45:23;;;;;;;;;;;11.60;79.80;220.40;238766.00;;;;345908;28;5020;-88
2022/03/27 00:45:35;;;;;;;;;;;11.60;79.50;220.40;238766.00;;;;345158;28;4047;-87
2022/03/27 00:45:47;;;;;;;;;;;11.60;79.70;220.40;238766.00;;;;344213;28;5306;-88
2022/03/27 00:45:59;;;;;;;;;;;11.60;79.50;220.40;238766.00;;;;344827;28;6067;-88
2022/03/27 00:46:11;;;;;;;;;;;11.60;79.40;220.40;238766.00;;;;347107;28;5024;-88
2022/03/27 00:46:23;;;;;;;;;;;11.60;79.70;220.40;238766.00;;;;343310;28;4749;-88
2022/03/27 00:46:35;;;;;;;;;;;11.60;79.80;220.40;238766.00;;;;345973;28;5192;-88
2022/03/27 00:46:46;;;;;;;;;;;11.60;79.80;220.40;238766.00;;;;346024;28;4043;-88
2022/03/27 00:46:58;;;;;;;;;;;11.60;79.90;220.40;238766.00;;;;344589;28;5379;-88
2022/03/27 00:47:10;;;;;;;;;;;11.60;80.10;220.40;238766.00;;;;344607;28;4019;-88
2022/03/27 00:47:22;;;;;;;;;;;11.60;80.20;220.40;238766.00;;;;344770;28;5078;-88
2022/03/27 00:47:34;;;;;;;;;;;11.60;79.80;220.40;238766.00;;;;345871;28;4288;-88
2022/03/27 00:47:45;;;;;;;;;;;11.60;79.60;220.40;238766.00;;;;347223;28;5284;-88
2022/03/27 00:47:57;;;;;;;;;;;11.60;79.30;220.40;238766.00;;;;346015;28;4038;-88
2022/03/27 00:48:10;;;;;;;;;;;11.60;79.30;220.40;238766.00;;;;344428;28;5350;-88
2022/03/27 00:48:22;;;;;;;;;;;11.60;79.40;220.40;238766.00;;;;345890;28;4150;-88
2022/03/27 00:48:34;;;;;;;;;;;11.60;79.70;220.40;238766.00;;;;345883;28;7707;-88
2022/03/27 00:48:46;;;;;;;;;;;11.60;80.80;220.40;238766.00;;;;346141;28;4039;-88
2022/03/27 00:48:57;;;;;;;;;;;11.60;81.00;220.40;238766.00;;;;345185;28;5279;-88
2022/03/27 00:49:09;;;;;;;;;;;11.50;81.20;220.40;238766.00;;;;343689;28;4019;-88
2022/03/27 00:49:21;;;;;;;;;;;11.50;80.50;220.40;238766.00;;;;347290;28;7222;-88
2022/03/27 00:49:33;;;;;;;;;;;11.50;80.10;220.40;238766.00;;;;344584;28;4477;-88
2022/03/27 00:49:45;;;;;;;;;;;11.50;79.80;220.40;238766.00;;;;343555;28;6894;-87
2022/03/27 00:49:57;;;;;;;;;;;11.50;80.00;220.40;238766.00;;;;346021;28;4027;-89
2022/03/27 00:50:09;;;;;;;;;;;11.50;80.20;220.40;238766.00;;;;345944;28;5044;-87
2022/03/27 00:50:21;;;;;;;;;;;11.50;80.30;220.40;238766.00;;;;343137;28;4253;-88
2022/03/27 00:50:33;;;;;;;;;;;11.50;80.40;220.40;238766.00;;;;343112;28;5355;-88
2022/03/27 00:50:45;;;;;;;;;;;11.50;80.00;220.40;238766.00;;;;346021;28;4042;-88
2022/03/27 00:50:57;;;;;;;;;;;11.50;79.80;220.40;238766.00;;;;343115;28;6261;-88
2022/03/27 00:51:09;;;;;;;;;;;11.50;79.50;220.40;238766.00;;;;344614;28;4031;-88
2022/03/27 00:51:20;;;;;;;;;;;11.50;79.50;220.40;238766.00;;;;342245;28;5562;-88
2022/03/27 00:51:32;;;;;;;;;;;11.50;79.70;220.40;238766.00;;;;344560;28;4238;-87
2022/03/27 00:51:44;;;;;;;;;;;11.50;79.90;220.40;238766.00;;;;345624;28;5024;-87
2022/03/27 00:51:56;;;;;;;;;;;11.50;80.10;220.40;238766.00;;;;343375;28;4308;-88
2022/03/27 00:52:07;;;;;;;;;;;11.60;80.30;220.40;238766.00;;;;341658;28;5063;-87
2022/03/27 00:52:19;;;;;;;;;;;11.60;80.30;220.40;238766.00;;;;341973;28;6066;-88
2022/03/27 00:52:31;;;;;;;;;;;11.60;80.00;220.40;238766.00;;;;344467;28;7164;-88
2022/03/27 00:52:43;;;;;;;;;;;11.60;79.80;220.40;238766.00;;;;345922;28;6082;-87
2022/03/27 00:52:55;;;;;;;;;;;11.60;79.90;220.40;238766.00;;;;345117;28;7038;-87
2022/03/27 00:53:07;;;;;;;;;;;11.60;80.00;220.40;238766.00;;;;345802;28;4219;-87
2022/03/27 00:53:19;;;;;;;;;;;11.60;79.70;220.40;238766.00;;;;345948;28;7231;-88
2022/03/27 00:53:31;;;;;;;;;;;11.60;79.60;220.40;238766.00;;;;343204;28;4225;-89
2022/03/27 00:53:42;;;;;;;;;;;11.60;79.60;220.40;238766.00;;;;344562;28;5501;-88
2022/03/27 00:53:54;;;;;;;;;;;11.60;80.00;220.40;238766.00;;;;346085;28;4663;-88
2022/03/27 00:54:06;;;;;;;;;;;11.60;80.20;220.40;238766.00;;;;343166;28;5290;-87
2022/03/27 00:54:18;;;;;;;;;;;11.60;79.90;220.40;238766.00;;;;345904;28;4048;-88
2022/03/27 00:54:29;;;;;;;;;;;11.60;80.00;220.40;238766.00;;;;347285;28;8652;-88
2022/03/27 00:54:41;;;;;;;;;;;11.60;80.20;220.40;238766.00;;;;346005;28;4039;-88
2022/03/27 00:54:53;;;;;;;;;;;11.60;80.20;220.40;238766.00;;;;347251;28;5273;-88
2022/03/27 00:55:05;;;;;;;;;;;11.60;80.00;220.40;238766.00;;;;344342;28;4041;-88
2022/03/27 00:55:16;;;;;;;;;;;11.60;80.20;220.40;238766.00;;;;344548;28;5655;-88
2022/03/27 00:55:28;;;;;;;;;;;11.60;80.50;220.40;238766.00;;;;345981;28;4315;-88
2022/03/27 00:55:40;;;;;;;;;;;11.60;80.50;220.40;238766.00;;;;344614;28;5547;-88
2022/03/27 00:55:53;;;;;;;;;;;11.60;80.70;220.40;238766.00;;;;348060;28;4045;-88
2022/03/27 00:56:05;;;;;;;;;;;11.60;80.60;220.40;238766.00;;;;344567;28;7204;-88
2022/03/27 00:56:17;;;;;;;;;;;11.60;80.50;220.40;238766.00;;;;345941;28;4019;-88
2022/03/27 00:56:29;;;;;;;;;;;11.60;80.40;220.40;238766.00;;;;345878;28;5105;-88
2022/03/27 00:56:40;;;;;;;;;;;11.60;80.90;220.40;238766.00;;;;345867;28;4018;-88
2022/03/27 00:56:52;;;;;;;;;;;11.60;80.90;220.40;238766.00;;;;345903;28;5586;-88
2022/03/27 00:57:04;;;;;;;;;;;11.60;80.70;220.40;238766.00;;;;345955;28;6192;-88
2022/03/27 00:57:16;;;;;;;;;;;11.60;80.50;220.40;238766.00;;;;341916;28;7354;-88
2022/03/27 00:57:29;;;;;;;;;;;11.60;80.50;220.40;238766.00;;;;343179;28;5919;-88
2022/03/27 00:57:41;;;;;;;;;;;11.60;80.50;220.40;238766.00;;;;344572;28;7189;-89
2022/03/27 00:57:52;;;;;;;;;;;11.60;80.50;220.40;238766.00;;;;343362;28;4260;-88
2022/03/27 00:58:05;;;;;;;;;;;11.60;80.30;220.40;238766.00;;;;344440;28;5069;-86
2022/03/27 00:58:17;;;;;;;;;;;11.60;80.10;220.40;238766.00;;;;344534;28;4083;-88
2022/03/27 00:58:29;;;;;;;;;;;11.60;79.90;220.40;238766.00;;;;343252;28;5246;-88
2022/03/27 00:58:40;;;;;;;;;;;11.60;79.90;220.40;238766.00;;;;346206;28;4247;-88
2022/03/27 00:58:52;;;;;;;;;;;11.60;79.90;220.40;238766.00;;;;347145;28;5293;-88
2022/03/27 00:59:04;;;;;;;;;;;11.60;80.80;220.40;238766.00;;;;345931;28;4031;-88
2022/03/27 00:59:16;;;;;;;;;;;11.60;80.50;220.40;238766.00;;;;345667;28;5266;-88
2022/03/27 00:59:28;;;;;;;;;;;11.60;80.80;220.40;238766.00;;;;345857;28;4507;-87
2022/03/27 00:59:40;;;;;;;;;;;11.60;80.90;220.40;238766.00;;;;344629;28;5574;-88